createdAt,value
2022-11-23T00:04:10.937Z,13.45
2022-11-23T00:09:11.460Z,12.98
2022-11-23T00:14:10.401Z,15.15
2022-11-23T00:19:09.831Z,12.63
2022-11-23T00:24:12.611Z,14.13
2022-11-23T00:29:11.367Z,12.07
2022-11-23T00:34:11.782Z,11.88
2022-11-23T00:39:10.568Z,13.98
2022-11-23T00:44:09.404Z,12.35
2022-11-23T00:49:08.137Z,12.60
2022-11-23T00:54:07.421Z,12.75
2022-11-23T00:59:06.559Z,12.70
2022-11-23T01:04:08.349Z,12.52
2022-11-23T01:09:21.824Z,12.43
2022-11-23T01:14:22.757Z,12.30
2022-11-23T01:19:21.779Z,12.30
2022-11-23T01:24:23.388Z,11.13
2022-11-23T01:29:23.452Z,11.45
2022-11-23T01:34:22.321Z,10.80
2022-11-23T01:39:22.194Z,11.55
2022-11-23T01:44:33.939Z,12.35
2022-11-23T01:49:38.147Z,11.02
2022-11-23T01:54:45.518Z,11.77
2022-11-23T01:59:46.281Z,12.55
2022-11-23T02:04:48.798Z,11.13
2022-11-23T02:09:48.486Z,10.20
2022-11-23T02:14:47.485Z,12.13
2022-11-23T02:20:10.330Z,12.57
2022-11-23T02:25:16.136Z,12.30
2022-11-23T02:30:14.940Z,11.82
2022-11-23T02:35:13.852Z,10.18
2022-11-23T02:40:28.348Z,11.38
2022-11-23T02:45:39.603Z,12.45
2022-11-23T02:50:38.378Z,12.07
2022-11-23T02:55:38.829Z,12.38
2022-11-23T03:00:37.731Z,12.38
2022-11-23T03:05:36.759Z,12.63
2022-11-23T03:10:37.644Z,11.65
2022-11-23T03:15:36.410Z,11.95
2022-11-23T03:20:37.222Z,12.75
2022-11-23T03:25:36.917Z,11.25
2022-11-23T03:30:38.069Z,13.05
2022-11-23T03:35:39.069Z,11.73
2022-11-23T03:40:58.108Z,11.88
2022-11-23T03:46:16.734Z,11.35
2022-11-23T03:51:15.773Z,10.98
2022-11-23T03:56:15.356Z,12.80
2022-11-23T04:01:17.907Z,12.75
2022-11-23T04:06:20.048Z,12.50
2022-11-23T04:11:34.262Z,12.10
2022-11-23T04:16:33.202Z,13.00
2022-11-23T04:21:33.049Z,13.30
2022-11-23T04:26:32.155Z,11.68
2022-11-23T04:31:31.703Z,12.18
2022-11-23T04:41:41.273Z,11.73
2022-11-23T04:46:40.238Z,11.10
2022-11-23T04:56:43.083Z,11.07
2022-11-23T05:01:42.359Z,13.30
2022-11-23T05:07:19.548Z,11.15
2022-11-23T05:12:25.219Z,12.20
2022-11-23T05:17:24.282Z,12.63
2022-11-23T05:22:25.991Z,11.93
2022-11-23T05:27:25.804Z,12.65
2022-11-23T05:32:24.955Z,10.60
2022-11-23T05:37:24.098Z,11.23
2022-11-23T05:42:29.697Z,11.63
2022-11-23T05:47:34.943Z,13.77
2022-11-23T05:52:37.139Z,13.55
2022-11-23T05:57:35.941Z,13.90
2022-11-23T06:02:41.275Z,13.68
2022-11-23T06:07:42.319Z,14.27
2022-11-23T06:12:46.044Z,11.90
2022-11-23T06:17:48.593Z,13.82
2022-11-23T06:22:53.990Z,13.25
2022-11-23T06:28:00.028Z,13.70
2022-11-23T06:33:06.185Z,12.85
2022-11-23T06:38:11.773Z,13.15
2022-11-23T06:43:11.176Z,13.05
2022-11-23T06:48:14.193Z,13.10
2022-11-23T06:53:17.602Z,14.40
2022-11-23T06:58:24.107Z,12.23
2022-11-23T07:03:25.219Z,12.32
2022-11-23T07:08:31.672Z,13.30
2022-11-23T07:13:37.100Z,12.93
2022-11-23T07:18:36.055Z,12.93
2022-11-23T07:23:40.669Z,13.38
2022-11-23T07:28:40.481Z,12.15
2022-11-23T07:33:39.787Z,13.40
2022-11-23T07:38:38.820Z,13.15
2022-11-23T07:43:38.554Z,13.77
2022-11-23T07:48:37.353Z,14.35
2022-11-23T07:53:36.484Z,14.63
2022-11-23T07:58:35.299Z,13.73
2022-11-23T08:03:34.083Z,13.65
2022-11-23T08:08:35.081Z,14.05
2022-11-23T08:13:37.493Z,13.95
2022-11-23T08:18:36.435Z,14.02
2022-11-23T08:23:35.675Z,11.75
2022-11-23T08:28:34.488Z,12.50
2022-11-23T08:33:33.456Z,12.15
2022-11-23T08:38:33.641Z,12.18
2022-11-23T08:43:32.993Z,14.43
2022-11-23T08:48:31.773Z,11.82
2022-11-23T08:53:31.230Z,12.43
2022-11-23T08:58:30.255Z,13.27
2022-11-23T09:03:28.981Z,13.10
2022-11-23T09:08:29.255Z,13.65
2022-11-23T09:13:28.892Z,14.23
2022-11-23T09:18:30.599Z,12.88
2022-11-23T09:23:29.795Z,11.68
2022-11-23T09:28:28.644Z,13.85
2022-11-23T09:33:27.597Z,13.23
2022-11-23T09:38:51.401Z,13.68
2022-11-23T09:44:01.049Z,12.57
2022-11-23T09:49:20.555Z,13.27
2022-11-23T09:54:25.852Z,14.35
2022-11-23T09:59:31.313Z,13.15
2022-11-23T10:04:35.724Z,14.25
2022-11-23T10:10:00.733Z,12.00
2022-11-23T10:15:30.722Z,12.00
2022-11-23T10:20:50.766Z,11.43
2022-11-23T10:25:52.711Z,12.52
2022-11-23T10:31:01.709Z,12.32
2022-11-23T10:36:00.560Z,11.80
2022-11-23T10:41:13.258Z,12.27
2022-11-23T10:46:39.234Z,11.60
2022-11-23T10:51:38.897Z,10.55
2022-11-23T10:56:47.562Z,10.85
2022-11-23T11:02:16.802Z,11.73
2022-11-23T11:07:20.433Z,10.32
2022-11-23T11:12:19.809Z,11.45
2022-11-23T11:17:26.990Z,11.07
2022-11-23T11:22:27.929Z,11.25
2022-11-23T11:27:31.656Z,11.55
2022-11-23T11:32:47.112Z,11.18
2022-11-23T11:37:49.684Z,11.05
2022-11-23T11:42:53.955Z,10.10
2022-11-23T11:48:01.475Z,10.07
2022-11-23T11:53:05.888Z,9.90
2022-11-23T11:58:11.410Z,10.27
2022-11-23T12:03:52.771Z,10.27
2022-11-23T12:09:02.917Z,10.75
2022-11-23T12:14:03.978Z,10.60
2022-11-23T12:19:08.904Z,9.75
2022-11-23T12:24:26.254Z,10.30
2022-11-23T12:29:51.095Z,10.93
2022-11-23T12:35:13.128Z,11.20
2022-11-23T12:40:24.774Z,10.88
2022-11-23T12:45:26.622Z,10.75
2022-11-23T12:50:45.490Z,10.68
2022-11-23T12:56:04.645Z,12.50
2022-11-23T13:01:15.149Z,11.57
2022-11-23T13:12:31.513Z,11.75
2022-11-23T13:17:30.320Z,12.60
2022-11-23T13:22:31.690Z,11.88
2022-11-23T13:27:42.071Z,12.63
2022-11-23T13:32:43.078Z,12.80
2022-11-23T13:38:13.955Z,13.25
2022-11-23T13:43:36.767Z,12.68
2022-11-23T13:48:56.731Z,12.57
2022-11-23T13:54:03.906Z,12.48
2022-11-23T13:59:27.447Z,12.35
2022-11-23T14:04:30.986Z,12.73
2022-11-23T14:09:35.299Z,12.45
2022-11-23T14:14:43.126Z,13.23
2022-11-23T14:20:03.659Z,14.15
2022-11-23T14:25:31.552Z,12.60
2022-11-23T14:36:03.212Z,12.05
2022-11-23T14:41:23.847Z,12.82
2022-11-23T14:46:25.860Z,12.82
2022-11-23T14:51:28.795Z,13.00
2022-11-23T14:56:44.178Z,14.43
2022-11-23T15:02:24.714Z,13.15
2022-11-23T15:07:29.061Z,12.43
2022-11-23T15:12:40.519Z,12.85
2022-11-23T15:17:51.282Z,12.32
2022-11-23T15:22:51.281Z,11.23
2022-11-23T15:27:50.307Z,12.73
2022-11-23T15:32:57.453Z,12.18
2022-11-23T15:37:56.931Z,12.95
2022-11-23T15:42:55.695Z,13.73
2022-11-23T15:47:54.835Z,12.75
2022-11-23T15:52:53.885Z,13.50
2022-11-23T15:57:54.408Z,13.20
2022-11-23T16:02:53.306Z,14.43
2022-11-23T16:08:00.770Z,14.65
2022-11-23T16:13:01.892Z,14.25
2022-11-23T16:18:02.420Z,13.95
2022-11-23T16:23:01.800Z,13.93
2022-11-23T16:28:01.961Z,14.52
2022-11-23T16:33:01.084Z,15.10
2022-11-23T16:37:59.753Z,15.35
2022-11-23T16:42:59.960Z,14.93
2022-11-23T16:48:02.834Z,15.55
2022-11-23T16:53:13.006Z,14.95
2022-11-23T16:58:15.757Z,15.55
2022-11-23T17:03:19.524Z,13.65
2022-11-23T17:08:23.430Z,15.50
2022-11-23T17:13:26.744Z,15.68
2022-11-23T17:18:32.131Z,15.80
2022-11-23T17:23:31.023Z,15.85
2022-11-23T17:28:29.795Z,16.85
2022-11-23T17:33:28.647Z,6.88
2022-11-23T17:38:28.185Z,10.60
2022-11-23T17:43:27.097Z,16.10
2022-11-23T17:48:25.959Z,16.45
2022-11-23T17:53:25.664Z,16.45
2022-11-23T17:58:24.538Z,18.17
2022-11-23T18:03:23.302Z,17.23
2022-11-23T18:08:22.197Z,17.20
2022-11-23T18:13:20.939Z,17.20
2022-11-23T18:18:19.699Z,16.05
2022-11-23T18:23:18.815Z,15.90
2022-11-23T18:28:18.850Z,16.88
2022-11-23T18:33:17.771Z,15.02
2022-11-23T18:38:16.914Z,15.57
2022-11-23T18:43:15.748Z,15.65
2022-11-23T18:48:14.733Z,16.15
2022-11-23T18:53:13.892Z,15.57
2022-11-23T18:58:12.689Z,16.13
2022-11-23T19:03:11.755Z,15.38
2022-11-23T19:08:10.652Z,15.73
2022-11-23T19:13:09.307Z,17.92
2022-11-23T19:18:08.153Z,15.43
2022-11-23T19:23:07.213Z,16.35
2022-11-23T19:28:06.102Z,18.05
2022-11-23T19:33:04.887Z,16.95
2022-11-23T19:38:03.604Z,15.75
2022-11-23T19:43:02.247Z,15.65
2022-11-23T19:48:01.134Z,16.60
2022-11-23T19:53:15.003Z,17.70
2022-11-23T19:58:14.697Z,14.90
2022-11-23T20:03:13.903Z,14.30
2022-11-23T20:08:12.570Z,15.38
2022-11-23T20:13:11.511Z,17.58
2022-11-23T20:18:11.461Z,16.80
2022-11-23T20:23:11.149Z,15.45
2022-11-23T20:28:14.073Z,15.05
2022-11-23T20:33:12.853Z,15.27
2022-11-23T20:38:12.117Z,14.90
2022-11-23T20:43:12.327Z,13.55
2022-11-23T20:48:11.168Z,14.48
2022-11-23T20:53:10.032Z,13.05
2022-11-23T20:58:09.152Z,16.52
2022-11-23T21:03:09.405Z,14.55
2022-11-23T21:08:12.744Z,13.23
2022-11-23T21:13:48.580Z,12.70
2022-11-23T21:18:48.290Z,15.45
2022-11-23T21:23:51.008Z,12.85
2022-11-23T21:28:51.189Z,14.18
2022-11-23T21:33:52.365Z,14.40
2022-11-23T21:38:52.947Z,13.50
2022-11-23T21:43:54.645Z,13.38
2022-11-23T21:48:55.791Z,13.02
2022-11-23T21:53:58.749Z,13.20
2022-11-23T21:58:58.003Z,13.02
2022-11-23T22:04:05.050Z,12.00
2022-11-23T22:09:06.519Z,11.32
2022-11-23T22:14:08.069Z,11.00
2022-11-23T22:19:07.433Z,11.18
2022-11-23T22:24:07.449Z,10.32
2022-11-23T22:29:06.903Z,11.68
2022-11-23T22:34:08.797Z,11.45
2022-11-23T22:39:08.282Z,9.00
2022-11-23T22:44:09.718Z,9.65
2022-11-23T22:49:08.824Z,10.77
2022-11-23T22:54:09.629Z,10.20
2022-11-23T22:59:08.518Z,9.75
2022-11-23T23:04:07.503Z,10.23
2022-11-23T23:09:07.447Z,10.30
2022-11-23T23:14:06.290Z,10.57
2022-11-23T23:19:06.309Z,9.60
2022-11-23T23:24:05.760Z,9.95
2022-11-23T23:29:04.719Z,10.68
2022-11-23T23:34:03.574Z,9.82
2022-11-23T23:39:05.421Z,9.18
2022-11-23T23:44:04.428Z,11.43
2022-11-23T23:49:03.380Z,11.30
2022-11-23T23:54:02.280Z,10.80
2022-11-23T23:59:01.158Z,10.75
